LKPD

Pardubice Airport

Pardubice, Czech Republic
METAR LKPD 221600Z 03008KT 9999 FEW039 SCT200 M00/M09 Q1019 NOSIG
Observed Flight Rules
Feb-22 @ 16:00 UTC (34 minutes ago) Visual Flight Rules
Wind Visibility Clouds
30° at 8 knots 10,000+ meters
  • Few at 3,900' AGL
  • Scattered at 20,000' AGL
Temperatures Readings
Current 0°C / 32°F
Dewpoint -9°C / 16°F
Humidity 51%
Altimeter 30.09" Hg
Pressure 1019 hPa
Elevation 226
METAR LKPD 221600Z 03008KT 9999 FEW039 SCT200 M00/M09 Q1019 NOSIG
Observed Flight Rules
Feb-22 @ 16:00 UTC
(34 minutes ago)
VFR
Wind Visibility
30° at 8 knots 10,000+ meters
Clouds
  • Few at 3,900' AGL
  • Scattered at 20,000' AGL
Temperature Dewpoint
0°C / 32°F -9°C / 16°F
Humidity Altimeter Pressure
51% 30.09" Hg 1019 hPa